sensor_id;sensor_type;location;lat;lon;timestamp;P1;durP1;ratioP1;P2;durP2;ratioP2
52306;SDS011;38249;48.920;12.882;2022-12-07T00:00:15;5.85;;;4.90;;
52306;SDS011;38249;48.920;12.882;2022-12-07T00:02:42;5.15;;;4.22;;
52306;SDS011;38249;48.920;12.882;2022-12-07T00:05:09;5.57;;;4.35;;
52306;SDS011;38249;48.920;12.882;2022-12-07T00:07:35;7.35;;;4.43;;
52306;SDS011;38249;48.920;12.882;2022-12-07T00:10:02;4.57;;;4.07;;
52306;SDS011;38249;48.920;12.882;2022-12-07T00:12:29;5.60;;;4.10;;
52306;SDS011;38249;48.920;12.882;2022-12-07T00:14:57;5.22;;;4.25;;
52306;SDS011;38249;48.920;12.882;2022-12-07T00:17:24;7.05;;;4.35;;
52306;SDS011;38249;48.920;12.882;2022-12-07T00:19:50;5.60;;;5.00;;
52306;SDS011;38249;48.920;12.882;2022-12-07T00:22:17;7.00;;;4.60;;
52306;SDS011;38249;48.920;12.882;2022-12-07T00:24:43;5.05;;;4.55;;
52306;SDS011;38249;48.920;12.882;2022-12-07T00:27:10;6.38;;;4.20;;
52306;SDS011;38249;48.920;12.882;2022-12-07T00:29:36;6.10;;;4.57;;
52306;SDS011;38249;48.920;12.882;2022-12-07T00:32:04;6.45;;;5.00;;
52306;SDS011;38249;48.920;12.882;2022-12-07T00:34:31;7.32;;;5.35;;
52306;SDS011;38249;48.920;12.882;2022-12-07T00:36:58;5.22;;;4.72;;
52306;SDS011;38249;48.920;12.882;2022-12-07T00:39:24;5.20;;;4.70;;
52306;SDS011;38249;48.920;12.882;2022-12-07T00:41:51;7.85;;;4.68;;
52306;SDS011;38249;48.920;12.882;2022-12-07T00:44:17;6.35;;;4.80;;
52306;SDS011;38249;48.920;12.882;2022-12-07T00:46:44;6.65;;;4.85;;
52306;SDS011;38249;48.920;12.882;2022-12-07T00:49:12;6.70;;;4.78;;
52306;SDS011;38249;48.920;12.882;2022-12-07T00:51:39;6.38;;;5.00;;
52306;SDS011;38249;48.920;12.882;2022-12-07T00:54:05;6.25;;;4.70;;
52306;SDS011;38249;48.920;12.882;2022-12-07T00:56:32;5.47;;;4.82;;
52306;SDS011;38249;48.920;12.882;2022-12-07T00:59:00;6.45;;;5.15;;
52306;SDS011;38249;48.920;12.882;2022-12-07T01:01:29;5.28;;;4.78;;
52306;SDS011;38249;48.920;12.882;2022-12-07T01:03:56;7.05;;;4.70;;
52306;SDS011;38249;48.920;12.882;2022-12-07T01:06:24;5.28;;;4.70;;
52306;SDS011;38249;48.920;12.882;2022-12-07T01:08:51;5.85;;;4.82;;
52306;SDS011;38249;48.920;12.882;2022-12-07T01:11:19;5.55;;;4.90;;
52306;SDS011;38249;48.920;12.882;2022-12-07T01:13:48;6.20;;;4.47;;
52306;SDS011;38249;48.920;12.882;2022-12-07T01:16:16;5.72;;;4.53;;
52306;SDS011;38249;48.920;12.882;2022-12-07T01:18:45;5.07;;;4.50;;
52306;SDS011;38249;48.920;12.882;2022-12-07T01:21:13;5.03;;;4.05;;
52306;SDS011;38249;48.920;12.882;2022-12-07T01:23:44;6.47;;;5.03;;
52306;SDS011;38249;48.920;12.882;2022-12-07T01:26:11;6.20;;;4.70;;
52306;SDS011;38249;48.920;12.882;2022-12-07T01:28:39;5.68;;;4.78;;
52306;SDS011;38249;48.920;12.882;2022-12-07T01:31:06;6.22;;;5.28;;
52306;SDS011;38249;48.920;12.882;2022-12-07T01:33:35;6.38;;;4.85;;
52306;SDS011;38249;48.920;12.882;2022-12-07T01:36:04;6.90;;;5.40;;
52306;SDS011;38249;48.920;12.882;2022-12-07T01:38:33;7.35;;;5.43;;
52306;SDS011;38249;48.920;12.882;2022-12-07T01:41:02;6.65;;;5.20;;
52306;SDS011;38249;48.920;12.882;2022-12-07T01:43:30;6.22;;;4.78;;
52306;SDS011;38249;48.920;12.882;2022-12-07T01:45:57;6.22;;;5.00;;
52306;SDS011;38249;48.920;12.882;2022-12-07T01:48:25;6.15;;;4.60;;
52306;SDS011;38249;48.920;12.882;2022-12-07T01:50:59;5.93;;;4.70;;
52306;SDS011;38249;48.920;12.882;2022-12-07T01:53:28;6.75;;;5.20;;
52306;SDS011;38249;48.920;12.882;2022-12-07T01:55:56;7.97;;;5.40;;
52306;SDS011;38249;48.920;12.882;2022-12-07T01:58:26;6.20;;;4.78;;
52306;SDS011;38249;48.920;12.882;2022-12-07T02:00:53;7.70;;;5.82;;
52306;SDS011;38249;48.920;12.882;2022-12-07T02:03:22;8.15;;;5.68;;
52306;SDS011;38249;48.920;12.882;2022-12-07T02:05:53;7.28;;;5.60;;
52306;SDS011;38249;48.920;12.882;2022-12-07T02:08:21;8.25;;;5.43;;
52306;SDS011;38249;48.920;12.882;2022-12-07T02:10:48;8.52;;;5.60;;
52306;SDS011;38249;48.920;12.882;2022-12-07T02:13:15;7.93;;;5.78;;
52306;SDS011;38249;48.920;12.882;2022-12-07T02:15:50;8.25;;;5.75;;
52306;SDS011;38249;48.920;12.882;2022-12-07T02:18:30;9.50;;;5.90;;
52306;SDS011;38249;48.920;12.882;2022-12-07T02:21:07;7.05;;;5.88;;
52306;SDS011;38249;48.920;12.882;2022-12-07T02:23:47;7.35;;;5.88;;
52306;SDS011;38249;48.920;12.882;2022-12-07T02:29:43;7.15;;;5.35;;
52306;SDS011;38249;48.920;12.882;2022-12-07T02:32:14;8.48;;;6.32;;
52306;SDS011;38249;48.920;12.882;2022-12-07T02:34:47;7.60;;;5.75;;
52306;SDS011;38249;48.920;12.882;2022-12-07T02:37:21;7.93;;;6.23;;
52306;SDS011;38249;48.920;12.882;2022-12-07T02:39:59;9.90;;;6.22;;
52306;SDS011;38249;48.920;12.882;2022-12-07T02:42:30;7.85;;;6.38;;
52306;SDS011;38249;48.920;12.882;2022-12-07T02:45:04;8.15;;;5.75;;
52306;SDS011;38249;48.920;12.882;2022-12-07T02:47:32;8.57;;;6.35;;
52306;SDS011;38249;48.920;12.882;2022-12-07T02:50:02;8.27;;;6.03;;
52306;SDS011;38249;48.920;12.882;2022-12-07T02:52:30;9.80;;;6.80;;
52306;SDS011;38249;48.920;12.882;2022-12-07T02:54:56;8.80;;;6.15;;
52306;SDS011;38249;48.920;12.882;2022-12-07T02:57:27;8.18;;;6.47;;
52306;SDS011;38249;48.920;12.882;2022-12-07T03:00:06;9.75;;;6.55;;
52306;SDS011;38249;48.920;12.882;2022-12-07T03:02:36;8.32;;;6.20;;
52306;SDS011;38249;48.920;12.882;2022-12-07T03:05:11;9.40;;;6.65;;
52306;SDS011;38249;48.920;12.882;2022-12-07T03:07:48;10.82;;;6.53;;
52306;SDS011;38249;48.920;12.882;2022-12-07T03:10:22;9.85;;;7.10;;
52306;SDS011;38249;48.920;12.882;2022-12-07T03:12:59;9.63;;;7.28;;
52306;SDS011;38249;48.920;12.882;2022-12-07T03:15:33;10.23;;;7.45;;
52306;SDS011;38249;48.920;12.882;2022-12-07T03:18:06;9.10;;;6.75;;
52306;SDS011;38249;48.920;12.882;2022-12-07T03:20:33;8.73;;;6.60;;
52306;SDS011;38249;48.920;12.882;2022-12-07T03:23:04;10.60;;;7.07;;
52306;SDS011;38249;48.920;12.882;2022-12-07T03:25:34;12.90;;;7.00;;
52306;SDS011;38249;48.920;12.882;2022-12-07T03:28:05;9.93;;;6.93;;
52306;SDS011;38249;48.920;12.882;2022-12-07T03:30:37;8.82;;;6.65;;
52306;SDS011;38249;48.920;12.882;2022-12-07T03:33:09;8.32;;;7.07;;
52306;SDS011;38249;48.920;12.882;2022-12-07T03:35:40;11.18;;;7.50;;
52306;SDS011;38249;48.920;12.882;2022-12-07T03:38:11;9.60;;;7.63;;
52306;SDS011;38249;48.920;12.882;2022-12-07T03:40:44;10.65;;;7.30;;
52306;SDS011;38249;48.920;12.882;2022-12-07T03:43:15;9.32;;;6.82;;
52306;SDS011;38249;48.920;12.882;2022-12-07T03:45:47;9.05;;;6.95;;
52306;SDS011;38249;48.920;12.882;2022-12-07T03:48:22;9.80;;;6.65;;
52306;SDS011;38249;48.920;12.882;2022-12-07T03:50:55;10.10;;;6.78;;
52306;SDS011;38249;48.920;12.882;2022-12-07T03:53:29;10.45;;;6.60;;
52306;SDS011;38249;48.920;12.882;2022-12-07T03:56:03;13.50;;;8.90;;
52306;SDS011;38249;48.920;12.882;2022-12-07T03:58:30;22.02;;;13.57;;
52306;SDS011;38249;48.920;12.882;2022-12-07T04:00:59;15.05;;;10.07;;
52306;SDS011;38249;48.920;12.882;2022-12-07T04:03:26;10.15;;;7.13;;
52306;SDS011;38249;48.920;12.882;2022-12-07T04:05:52;11.15;;;6.95;;
52306;SDS011;38249;48.920;12.882;2022-12-07T04:08:19;9.18;;;6.78;;
52306;SDS011;38249;48.920;12.882;2022-12-07T04:10:46;9.25;;;7.13;;
52306;SDS011;38249;48.920;12.882;2022-12-07T04:13:13;10.05;;;7.55;;
52306;SDS011;38249;48.920;12.882;2022-12-07T04:15:39;10.13;;;7.68;;
52306;SDS011;38249;48.920;12.882;2022-12-07T04:18:07;10.10;;;7.55;;
52306;SDS011;38249;48.920;12.882;2022-12-07T04:20:34;9.85;;;6.60;;
52306;SDS011;38249;48.920;12.882;2022-12-07T04:23:00;8.80;;;6.57;;
52306;SDS011;38249;48.920;12.882;2022-12-07T04:25:27;10.77;;;7.40;;
52306;SDS011;38249;48.920;12.882;2022-12-07T04:27:53;8.88;;;6.65;;
52306;SDS011;38249;48.920;12.882;2022-12-07T04:30:20;9.40;;;7.00;;
52306;SDS011;38249;48.920;12.882;2022-12-07T04:32:46;12.73;;;7.28;;
52306;SDS011;38249;48.920;12.882;2022-12-07T04:35:14;10.23;;;7.82;;
52306;SDS011;38249;48.920;12.882;2022-12-07T04:37:41;9.02;;;6.95;;
52306;SDS011;38249;48.920;12.882;2022-12-07T04:40:08;8.50;;;6.50;;
52306;SDS011;38249;48.920;12.882;2022-12-07T04:42:36;10.52;;;7.40;;
52306;SDS011;38249;48.920;12.882;2022-12-07T04:45:03;10.73;;;7.38;;
52306;SDS011;38249;48.920;12.882;2022-12-07T04:47:30;10.18;;;7.78;;
52306;SDS011;38249;48.920;12.882;2022-12-07T04:49:56;12.23;;;7.70;;
52306;SDS011;38249;48.920;12.882;2022-12-07T04:52:24;10.75;;;7.50;;
52306;SDS011;38249;48.920;12.882;2022-12-07T04:54:51;10.60;;;7.30;;
52306;SDS011;38249;48.920;12.882;2022-12-07T04:57:17;11.27;;;8.00;;
52306;SDS011;38249;48.920;12.882;2022-12-07T04:59:44;11.07;;;7.22;;
52306;SDS011;38249;48.920;12.882;2022-12-07T05:02:10;11.07;;;7.57;;
52306;SDS011;38249;48.920;12.882;2022-12-07T05:04:37;11.00;;;7.38;;
52306;SDS011;38249;48.920;12.882;2022-12-07T05:07:04;10.00;;;7.20;;
52306;SDS011;38249;48.920;12.882;2022-12-07T05:09:31;11.63;;;8.23;;
52306;SDS011;38249;48.920;12.882;2022-12-07T05:11:58;12.73;;;8.50;;
52306;SDS011;38249;48.920;12.882;2022-12-07T05:14:25;9.18;;;7.28;;
52306;SDS011;38249;48.920;12.882;2022-12-07T05:16:51;11.90;;;7.50;;
52306;SDS011;38249;48.920;12.882;2022-12-07T05:19:18;10.68;;;7.63;;
52306;SDS011;38249;48.920;12.882;2022-12-07T05:21:45;11.13;;;7.70;;
52306;SDS011;38249;48.920;12.882;2022-12-07T05:24:13;11.45;;;6.97;;
52306;SDS011;38249;48.920;12.882;2022-12-07T05:26:42;11.40;;;7.68;;
52306;SDS011;38249;48.920;12.882;2022-12-07T05:29:10;11.82;;;8.05;;
52306;SDS011;38249;48.920;12.882;2022-12-07T05:31:38;13.98;;;8.88;;
52306;SDS011;38249;48.920;12.882;2022-12-07T05:34:05;14.30;;;9.85;;
52306;SDS011;38249;48.920;12.882;2022-12-07T05:36:31;12.07;;;8.80;;
52306;SDS011;38249;48.920;12.882;2022-12-07T05:38:58;15.63;;;9.77;;
52306;SDS011;38249;48.920;12.882;2022-12-07T05:41:25;10.73;;;6.80;;
52306;SDS011;38249;48.920;12.882;2022-12-07T05:44:10;9.27;;;6.53;;
52306;SDS011;38249;48.920;12.882;2022-12-07T05:46:36;11.57;;;7.63;;
52306;SDS011;38249;48.920;12.882;2022-12-07T05:49:03;9.23;;;6.90;;
52306;SDS011;38249;48.920;12.882;2022-12-07T05:51:30;14.68;;;10.07;;
52306;SDS011;38249;48.920;12.882;2022-12-07T05:53:56;8.80;;;6.75;;
52306;SDS011;38249;48.920;12.882;2022-12-07T05:56:23;10.50;;;8.02;;
52306;SDS011;38249;48.920;12.882;2022-12-07T05:58:50;11.10;;;7.68;;
52306;SDS011;38249;48.920;12.882;2022-12-07T06:01:35;12.45;;;8.38;;
52306;SDS011;38249;48.920;12.882;2022-12-07T06:04:01;12.18;;;8.23;;
52306;SDS011;38249;48.920;12.882;2022-12-07T06:06:28;13.23;;;8.82;;
52306;SDS011;38249;48.920;12.882;2022-12-07T06:08:55;15.05;;;9.50;;
52306;SDS011;38249;48.920;12.882;2022-12-07T06:11:21;13.10;;;9.25;;
52306;SDS011;38249;48.920;12.882;2022-12-07T06:14:05;12.65;;;8.52;;
52306;SDS011;38249;48.920;12.882;2022-12-07T06:16:32;14.98;;;9.80;;
52306;SDS011;38249;48.920;12.882;2022-12-07T06:19:00;13.80;;;8.38;;
52306;SDS011;38249;48.920;12.882;2022-12-07T06:21:27;13.02;;;9.50;;
52306;SDS011;38249;48.920;12.882;2022-12-07T06:23:53;12.85;;;8.95;;
52306;SDS011;38249;48.920;12.882;2022-12-07T06:26:20;24.58;;;15.77;;
52306;SDS011;38249;48.920;12.882;2022-12-07T06:28:47;15.57;;;10.05;;
52306;SDS011;38249;48.920;12.882;2022-12-07T06:31:13;16.33;;;10.82;;
52306;SDS011;38249;48.920;12.882;2022-12-07T06:33:41;11.35;;;8.68;;
52306;SDS011;38249;48.920;12.882;2022-12-07T06:36:09;14.25;;;9.40;;
52306;SDS011;38249;48.920;12.882;2022-12-07T06:38:36;11.52;;;8.07;;
52306;SDS011;38249;48.920;12.882;2022-12-07T06:41:03;11.27;;;7.80;;
52306;SDS011;38249;48.920;12.882;2022-12-07T06:43:30;12.50;;;8.85;;
52306;SDS011;38249;48.920;12.882;2022-12-07T06:45:57;13.10;;;9.55;;
52306;SDS011;38249;48.920;12.882;2022-12-07T06:48:24;12.15;;;8.57;;
52306;SDS011;38249;48.920;12.882;2022-12-07T06:50:50;13.27;;;8.05;;
52306;SDS011;38249;48.920;12.882;2022-12-07T06:53:18;11.20;;;8.25;;
52306;SDS011;38249;48.920;12.882;2022-12-07T06:55:45;12.00;;;8.15;;
52306;SDS011;38249;48.920;12.882;2022-12-07T06:58:11;13.90;;;9.38;;
52306;SDS011;38249;48.920;12.882;2022-12-07T07:00:38;13.60;;;9.40;;
52306;SDS011;38249;48.920;12.882;2022-12-07T07:03:05;13.57;;;9.70;;
52306;SDS011;38249;48.920;12.882;2022-12-07T07:05:32;13.90;;;9.35;;
52306;SDS011;38249;48.920;12.882;2022-12-07T07:07:59;13.73;;;8.80;;
52306;SDS011;38249;48.920;12.882;2022-12-07T07:10:27;13.00;;;8.65;;
52306;SDS011;38249;48.920;12.882;2022-12-07T07:12:54;14.15;;;9.05;;
52306;SDS011;38249;48.920;12.882;2022-12-07T07:15:20;13.60;;;9.07;;
52306;SDS011;38249;48.920;12.882;2022-12-07T07:17:47;13.93;;;9.10;;
52306;SDS011;38249;48.920;12.882;2022-12-07T07:20:13;15.68;;;10.65;;
52306;SDS011;38249;48.920;12.882;2022-12-07T07:22:40;12.10;;;8.80;;
52306;SDS011;38249;48.920;12.882;2022-12-07T07:25:07;14.50;;;9.05;;
52306;SDS011;38249;48.920;12.882;2022-12-07T07:27:35;11.82;;;8.93;;
52306;SDS011;38249;48.920;12.882;2022-12-07T07:30:02;14.77;;;10.65;;
52306;SDS011;38249;48.920;12.882;2022-12-07T07:32:29;13.50;;;9.40;;
52306;SDS011;38249;48.920;12.882;2022-12-07T07:34:56;12.98;;;9.40;;
52306;SDS011;38249;48.920;12.882;2022-12-07T07:37:22;12.38;;;9.20;;
52306;SDS011;38249;48.920;12.882;2022-12-07T07:39:49;14.55;;;10.45;;
52306;SDS011;38249;48.920;12.882;2022-12-07T07:42:15;13.30;;;9.25;;
52306;SDS011;38249;48.920;12.882;2022-12-07T07:44:43;14.80;;;10.00;;
52306;SDS011;38249;48.920;12.882;2022-12-07T07:47:10;13.75;;;10.00;;
52306;SDS011;38249;48.920;12.882;2022-12-07T07:49:36;12.95;;;9.02;;
52306;SDS011;38249;48.920;12.882;2022-12-07T07:52:04;13.60;;;9.63;;
52306;SDS011;38249;48.920;12.882;2022-12-07T07:54:31;13.80;;;9.60;;
52306;SDS011;38249;48.920;12.882;2022-12-07T07:56:57;13.60;;;9.60;;
52306;SDS011;38249;48.920;12.882;2022-12-07T07:59:24;16.92;;;12.15;;
52306;SDS011;38249;48.920;12.882;2022-12-07T08:01:52;19.05;;;12.38;;
52306;SDS011;38249;48.920;12.882;2022-12-07T08:04:19;23.92;;;16.27;;
52306;SDS011;38249;48.920;12.882;2022-12-07T08:06:45;14.98;;;10.82;;
52306;SDS011;38249;48.920;12.882;2022-12-07T08:09:12;18.75;;;12.18;;
52306;SDS011;38249;48.920;12.882;2022-12-07T08:11:38;15.35;;;10.48;;
52306;SDS011;38249;48.920;12.882;2022-12-07T08:14:05;16.60;;;11.30;;
52306;SDS011;38249;48.920;12.882;2022-12-07T08:16:31;15.63;;;9.68;;
52306;SDS011;38249;48.920;12.882;2022-12-07T08:18:59;17.30;;;11.23;;
52306;SDS011;38249;48.920;12.882;2022-12-07T08:21:26;13.52;;;9.63;;
52306;SDS011;38249;48.920;12.882;2022-12-07T08:23:52;16.83;;;10.73;;
52306;SDS011;38249;48.920;12.882;2022-12-07T08:26:19;17.83;;;11.95;;
52306;SDS011;38249;48.920;12.882;2022-12-07T08:28:45;11.68;;;8.30;;
52306;SDS011;38249;48.920;12.882;2022-12-07T08:31:13;13.70;;;9.30;;
52306;SDS011;38249;48.920;12.882;2022-12-07T08:33:42;13.52;;;10.23;;
52306;SDS011;38249;48.920;12.882;2022-12-07T08:36:11;12.57;;;9.02;;
52306;SDS011;38249;48.920;12.882;2022-12-07T08:38:39;11.93;;;8.45;;
52306;SDS011;38249;48.920;12.882;2022-12-07T08:41:07;13.52;;;9.50;;
52306;SDS011;38249;48.920;12.882;2022-12-07T08:43:34;11.73;;;9.27;;
52306;SDS011;38249;48.920;12.882;2022-12-07T08:46:04;12.93;;;9.60;;
52306;SDS011;38249;48.920;12.882;2022-12-07T08:48:35;12.07;;;9.02;;
52306;SDS011;38249;48.920;12.882;2022-12-07T08:51:04;12.40;;;9.20;;
52306;SDS011;38249;48.920;12.882;2022-12-07T08:53:33;11.40;;;7.80;;
52306;SDS011;38249;48.920;12.882;2022-12-07T08:56:00;12.32;;;8.55;;
52306;SDS011;38249;48.920;12.882;2022-12-07T08:58:27;11.98;;;8.75;;
52306;SDS011;38249;48.920;12.882;2022-12-07T09:00:54;12.85;;;9.23;;
52306;SDS011;38249;48.920;12.882;2022-12-07T09:03:20;12.38;;;9.10;;
52306;SDS011;38249;48.920;12.882;2022-12-07T09:05:47;16.63;;;11.25;;
52306;SDS011;38249;48.920;12.882;2022-12-07T09:08:14;22.45;;;16.60;;
52306;SDS011;38249;48.920;12.882;2022-12-07T09:10:42;16.65;;;10.95;;
52306;SDS011;38249;48.920;12.882;2022-12-07T09:13:09;14.13;;;10.55;;
52306;SDS011;38249;48.920;12.882;2022-12-07T09:15:35;10.35;;;7.90;;
52306;SDS011;38249;48.920;12.882;2022-12-07T09:18:02;12.10;;;9.13;;
52306;SDS011;38249;48.920;12.882;2022-12-07T09:20:28;12.35;;;9.15;;
52306;SDS011;38249;48.920;12.882;2022-12-07T09:22:55;16.48;;;11.27;;
52306;SDS011;38249;48.920;12.882;2022-12-07T09:25:22;14.23;;;10.35;;
52306;SDS011;38249;48.920;12.882;2022-12-07T09:27:51;16.90;;;11.55;;
52306;SDS011;38249;48.920;12.882;2022-12-07T09:30:21;13.57;;;10.55;;
52306;SDS011;38249;48.920;12.882;2022-12-07T09:32:48;14.77;;;10.55;;
52306;SDS011;38249;48.920;12.882;2022-12-07T09:35:14;12.90;;;9.82;;
52306;SDS011;38249;48.920;12.882;2022-12-07T09:37:41;15.05;;;10.32;;
52306;SDS011;38249;48.920;12.882;2022-12-07T09:40:07;13.60;;;9.70;;
52306;SDS011;38249;48.920;12.882;2022-12-07T09:42:35;14.65;;;9.55;;
52306;SDS011;38249;48.920;12.882;2022-12-07T09:45:06;11.75;;;8.98;;
52306;SDS011;38249;48.920;12.882;2022-12-07T09:47:38;14.55;;;9.75;;
52306;SDS011;38249;48.920;12.882;2022-12-07T09:50:06;13.77;;;9.57;;
52306;SDS011;38249;48.920;12.882;2022-12-07T09:52:38;14.23;;;10.63;;
52306;SDS011;38249;48.920;12.882;2022-12-07T09:55:09;14.38;;;10.10;;
52306;SDS011;38249;48.920;12.882;2022-12-07T09:57:38;13.50;;;9.52;;
52306;SDS011;38249;48.920;12.882;2022-12-07T10:00:10;13.13;;;9.82;;
52306;SDS011;38249;48.920;12.882;2022-12-07T10:02:40;15.70;;;9.77;;
52306;SDS011;38249;48.920;12.882;2022-12-07T10:05:10;14.38;;;9.88;;
52306;SDS011;38249;48.920;12.882;2022-12-07T10:07:39;13.95;;;9.65;;
52306;SDS011;38249;48.920;12.882;2022-12-07T10:10:09;15.18;;;10.63;;
52306;SDS011;38249;48.920;12.882;2022-12-07T10:12:52;15.40;;;9.90;;
52306;SDS011;38249;48.920;12.882;2022-12-07T10:15:38;13.33;;;9.57;;
52306;SDS011;38249;48.920;12.882;2022-12-07T10:18:28;15.05;;;9.73;;
52306;SDS011;38249;48.920;12.882;2022-12-07T10:21:03;15.10;;;9.60;;
52306;SDS011;38249;48.920;12.882;2022-12-07T10:23:41;12.88;;;8.68;;
52306;SDS011;38249;48.920;12.882;2022-12-07T10:26:28;13.90;;;9.02;;
52306;SDS011;38249;48.920;12.882;2022-12-07T10:28:58;18.52;;;12.20;;
52306;SDS011;38249;48.920;12.882;2022-12-07T10:31:27;13.85;;;9.25;;
52306;SDS011;38249;48.920;12.882;2022-12-07T10:33:55;25.13;;;15.27;;
52306;SDS011;38249;48.920;12.882;2022-12-07T10:36:24;13.45;;;9.95;;
52306;SDS011;38249;48.920;12.882;2022-12-07T10:38:53;17.15;;;10.90;;
52306;SDS011;38249;48.920;12.882;2022-12-07T10:41:26;14.02;;;9.25;;
52306;SDS011;38249;48.920;12.882;2022-12-07T10:43:54;12.43;;;8.80;;
52306;SDS011;38249;48.920;12.882;2022-12-07T10:46:42;12.80;;;9.68;;
52306;SDS011;38249;48.920;12.882;2022-12-07T10:49:31;14.10;;;10.10;;
52306;SDS011;38249;48.920;12.882;2022-12-07T10:52:13;14.10;;;9.88;;
52306;SDS011;38249;48.920;12.882;2022-12-07T10:54:45;14.73;;;9.67;;
52306;SDS011;38249;48.920;12.882;2022-12-07T10:57:22;15.00;;;10.65;;
52306;SDS011;38249;48.920;12.882;2022-12-07T11:00:14;15.70;;;10.23;;
52306;SDS011;38249;48.920;12.882;2022-12-07T11:02:52;14.77;;;9.25;;
52306;SDS011;38249;48.920;12.882;2022-12-07T11:05:45;15.45;;;9.60;;
52306;SDS011;38249;48.920;12.882;2022-12-07T11:10:49;16.48;;;10.90;;
52306;SDS011;38249;48.920;12.882;2022-12-07T11:13:25;16.23;;;10.38;;
52306;SDS011;38249;48.920;12.882;2022-12-07T11:16:16;14.65;;;10.00;;
52306;SDS011;38249;48.920;12.882;2022-12-07T11:21:40;10.73;;;7.53;;
52306;SDS011;38249;48.920;12.882;2022-12-07T11:24:13;16.00;;;10.02;;
52306;SDS011;38249;48.920;12.882;2022-12-07T11:26:46;12.82;;;8.68;;
52306;SDS011;38249;48.920;12.882;2022-12-07T11:29:28;13.75;;;8.90;;
52306;SDS011;38249;48.920;12.882;2022-12-07T11:32:09;12.07;;;8.52;;
52306;SDS011;38249;48.920;12.882;2022-12-07T11:34:47;19.35;;;9.07;;
52306;SDS011;38249;48.920;12.882;2022-12-07T11:37:24;14.00;;;8.30;;
52306;SDS011;38249;48.920;12.882;2022-12-07T11:39:56;13.48;;;8.75;;
52306;SDS011;38249;48.920;12.882;2022-12-07T11:42:29;10.63;;;7.55;;
52306;SDS011;38249;48.920;12.882;2022-12-07T11:45:00;11.23;;;8.48;;
52306;SDS011;38249;48.920;12.882;2022-12-07T11:47:30;12.13;;;8.32;;
52306;SDS011;38249;48.920;12.882;2022-12-07T11:50:14;10.80;;;7.70;;
52306;SDS011;38249;48.920;12.882;2022-12-07T11:52:51;10.95;;;7.63;;
52306;SDS011;38249;48.920;12.882;2022-12-07T11:55:21;11.65;;;8.38;;
52306;SDS011;38249;48.920;12.882;2022-12-07T11:57:54;11.65;;;8.40;;
52306;SDS011;38249;48.920;12.882;2022-12-07T12:00:29;12.55;;;8.52;;
52306;SDS011;38249;48.920;12.882;2022-12-07T12:02:57;13.13;;;9.95;;
52306;SDS011;38249;48.920;12.882;2022-12-07T12:05:29;13.98;;;9.00;;
52306;SDS011;38249;48.920;12.882;2022-12-07T12:07:59;11.50;;;8.18;;
52306;SDS011;38249;48.920;12.882;2022-12-07T12:10:38;13.90;;;8.88;;
52306;SDS011;38249;48.920;12.882;2022-12-07T12:13:24;14.82;;;9.50;;
52306;SDS011;38249;48.920;12.882;2022-12-07T12:16:13;12.63;;;9.25;;
52306;SDS011;38249;48.920;12.882;2022-12-07T12:19:03;16.27;;;9.50;;
52306;SDS011;38249;48.920;12.882;2022-12-07T12:21:45;13.40;;;9.60;;
52306;SDS011;38249;48.920;12.882;2022-12-07T12:24:16;14.15;;;9.15;;
52306;SDS011;38249;48.920;12.882;2022-12-07T12:26:48;16.08;;;10.95;;
52306;SDS011;38249;48.920;12.882;2022-12-07T12:29:19;17.77;;;9.98;;
52306;SDS011;38249;48.920;12.882;2022-12-07T12:32:04;14.60;;;9.93;;
52306;SDS011;38249;48.920;12.882;2022-12-07T12:34:38;14.60;;;9.85;;
52306;SDS011;38249;48.920;12.882;2022-12-07T12:43:26;13.45;;;8.98;;
52306;SDS011;38249;48.920;12.882;2022-12-07T12:55:43;13.82;;;9.85;;
52306;SDS011;38249;48.920;12.882;2022-12-07T12:58:34;23.70;;;14.60;;
52306;SDS011;38249;48.920;12.882;2022-12-07T13:04:23;13.82;;;9.40;;
52306;SDS011;38249;48.920;12.882;2022-12-07T13:06:53;14.60;;;9.60;;
52306;SDS011;38249;48.920;12.882;2022-12-07T13:09:22;14.68;;;9.30;;
52306;SDS011;38249;48.920;12.882;2022-12-07T13:11:55;16.17;;;10.50;;
52306;SDS011;38249;48.920;12.882;2022-12-07T13:14:42;17.58;;;10.32;;
52306;SDS011;38249;48.920;12.882;2022-12-07T13:20:40;13.52;;;8.98;;
52306;SDS011;38249;48.920;12.882;2022-12-07T13:23:09;16.02;;;10.02;;
52306;SDS011;38249;48.920;12.882;2022-12-07T13:25:40;15.30;;;9.65;;
52306;SDS011;38249;48.920;12.882;2022-12-07T13:28:14;18.17;;;12.13;;
52306;SDS011;38249;48.920;12.882;2022-12-07T13:30:45;19.48;;;12.48;;
52306;SDS011;38249;48.920;12.882;2022-12-07T13:33:16;20.33;;;13.13;;
52306;SDS011;38249;48.920;12.882;2022-12-07T13:35:44;16.90;;;10.85;;
52306;SDS011;38249;48.920;12.882;2022-12-07T13:38:20;16.70;;;10.02;;
52306;SDS011;38249;48.920;12.882;2022-12-07T13:41:10;15.20;;;11.40;;
52306;SDS011;38249;48.920;12.882;2022-12-07T13:43:43;21.45;;;13.55;;
52306;SDS011;38249;48.920;12.882;2022-12-07T13:46:11;15.45;;;10.18;;
52306;SDS011;38249;48.920;12.882;2022-12-07T13:48:43;14.82;;;9.55;;
52306;SDS011;38249;48.920;12.882;2022-12-07T13:51:16;14.95;;;9.23;;
52306;SDS011;38249;48.920;12.882;2022-12-07T13:53:46;17.05;;;10.65;;
52306;SDS011;38249;48.920;12.882;2022-12-07T13:56:14;16.58;;;10.48;;
52306;SDS011;38249;48.920;12.882;2022-12-07T13:58:41;13.85;;;9.80;;
52306;SDS011;38249;48.920;12.882;2022-12-07T14:01:08;16.05;;;11.50;;
52306;SDS011;38249;48.920;12.882;2022-12-07T14:03:35;44.88;;;29.08;;
52306;SDS011;38249;48.920;12.882;2022-12-07T14:06:05;17.30;;;11.10;;
52306;SDS011;38249;48.920;12.882;2022-12-07T14:08:33;16.90;;;10.75;;
52306;SDS011;38249;48.920;12.882;2022-12-07T14:11:00;16.15;;;10.77;;
52306;SDS011;38249;48.920;12.882;2022-12-07T14:13:30;17.98;;;10.85;;
52306;SDS011;38249;48.920;12.882;2022-12-07T14:15:59;14.35;;;9.73;;
52306;SDS011;38249;48.920;12.882;2022-12-07T14:18:27;13.55;;;9.15;;
52306;SDS011;38249;48.920;12.882;2022-12-07T14:21:03;15.63;;;9.20;;
52306;SDS011;38249;48.920;12.882;2022-12-07T14:23:30;23.90;;;13.55;;
52306;SDS011;38249;48.920;12.882;2022-12-07T14:26:04;20.15;;;12.75;;
52306;SDS011;38249;48.920;12.882;2022-12-07T14:28:35;40.58;;;24.42;;
52306;SDS011;38249;48.920;12.882;2022-12-07T14:31:03;34.88;;;21.52;;
52306;SDS011;38249;48.920;12.882;2022-12-07T14:33:36;36.30;;;21.73;;
52306;SDS011;38249;48.920;12.882;2022-12-07T14:36:03;29.25;;;18.42;;
52306;SDS011;38249;48.920;12.882;2022-12-07T14:38:30;27.77;;;17.10;;
52306;SDS011;38249;48.920;12.882;2022-12-07T14:40:57;21.00;;;13.30;;
52306;SDS011;38249;48.920;12.882;2022-12-07T14:43:45;25.27;;;15.73;;
52306;SDS011;38249;48.920;12.882;2022-12-07T14:46:12;23.77;;;14.35;;
52306;SDS011;38249;48.920;12.882;2022-12-07T14:48:38;20.80;;;13.20;;
52306;SDS011;38249;48.920;12.882;2022-12-07T14:51:05;23.13;;;13.93;;
52306;SDS011;38249;48.920;12.882;2022-12-07T14:53:35;20.10;;;12.48;;
52306;SDS011;38249;48.920;12.882;2022-12-07T14:56:05;16.77;;;10.63;;
52306;SDS011;38249;48.920;12.882;2022-12-07T14:58:33;15.65;;;10.82;;
52306;SDS011;38249;48.920;12.882;2022-12-07T15:01:01;21.85;;;11.38;;
52306;SDS011;38249;48.920;12.882;2022-12-07T15:03:28;16.27;;;10.68;;
52306;SDS011;38249;48.920;12.882;2022-12-07T15:05:55;17.77;;;11.00;;
52306;SDS011;38249;48.920;12.882;2022-12-07T15:08:22;16.42;;;11.05;;